Terminal Aerodrome Forecast
Issued by NWS

Home | Current Version | Previous Version | Text Only | Print | Product List | Glossary On
Versions: 1 2 3 4 5 6 7 8 9 10 11 12
000
FTUS44 KSJT 042300
TAFSOA
TAF
KSOA 042320Z 0500/0524 14016G24KT P6SM VCSH SCT030 BKN090
     FM050400 14016G24KT P6SM VCSH BKN025
     FM050600 14014G22KT P6SM VCSH OVC015
     FM050800 14014G22KT P6SM OVC007
     FM051500 15016G24KT P6SM OVC015=

USA.gov is the U.S. government's official web portal to all federal, state and local government web resources and services.